Liberty of The Seas — C6VQ8 — position and weather

sailwx.info

Track history (hours):
 
Tides and Currents Weather Stations Pressure Air Temp Water Temp Dewpoint Dewpoint Depression Visibility Wind Speed Wind Dir Waves Ship Positions

Liberty of The Seas

Last reported at 2014-Oct-20 06:31 UTC. Time now 2014-Oct-20 09:59 UTC.
Position N 43°21' E 005°19'.

Type: Passenger vessel. MMSI: 309436000.

Date/timePositionNaut miles runAvg speedWind from/ knotsBaromVisibWave heightAir tempDewpointWater temp
2014-Oct-20 06:31N 43°21' E 005°19'9 9.5
2014-Oct-20 05:33N 43°15' E 005°10'1312.8
2014-Oct-20 04:33N 43°05' E 004°58'10013.3
2014-Oct-19 21:04N 41°51' E 003°28'2013.3
2014-Oct-19 19:33N 41°40' E 003°05'1713.4
2014-Oct-19 18:16N 41°30' E 002°46'2613.3
2014-Oct-19 16:17N 41°17' E 002°16'50 3.0
2014-Oct-18 23:33N 41°16' E 003°23'3316.5
2014-Oct-18 21:33N 41°16' E 004°07'2016.3
2014-Oct-18 20:21N 41°16' E 004°33'2015.9
2014-Oct-18 19:07N 41°16' E 004°59'1016.7
2014-Oct-18 18:32N 41°16' E 005°12'1716.8
2014-Oct-18 17:32N 41°17' E 005°34'1515.8
2014-Oct-18 16:33N 41°17' E 005°55'1716.0
2014-Oct-18 15:30N 41°17' E 006°17'2216.2
2014-Oct-18 14:09N 41°17' E 006°46'1016.3
2014-Oct-18 13:32N 41°17' E 006°60'  
2014-Oct-15 19:20N 43°38' E 009°40'1417.1
2014-Oct-15 18:32N 43°50' E 009°47'1414.5
2014-Oct-15 17:33N 44°04' E 009°51'2 2.3
2014-Oct-15 16:33N 44°06' E 009°50'0 0.0
2014-Oct-15 15:33N 44°06' E 009°50'0 0.0
2014-Oct-15 14:33N 44°06' E 009°50'0 0.0
2014-Oct-15 13:30N 44°06' E 009°50'0 0.0
2014-Oct-15 12:33N 44°06' E 009°50'0 0.0
2014-Oct-15 11:33N 44°06' E 009°50'0 0.0
2014-Oct-15 10:33N 44°06' E 009°50'0 0.0
2014-Oct-15 09:33N 44°06' E 009°50'0 0.0
2014-Oct-15 08:33N 44°06' E 009°50'0 0.0
2014-Oct-15 07:33N 44°06' E 009°50'0 0.0
2014-Oct-15 06:33N 44°06' E 009°50'0 0.0
2014-Oct-15 05:30N 44°06' E 009°50'0 0.4
2014-Oct-15 04:33N 44°06' E 009°50'7 6.9
2014-Oct-15 03:33N 44°00' E 009°56'10 9.7
2014-Oct-15 02:33N 43°58' E 009°43'1111.2
2014-Oct-15 01:33N 43°56' E 009°28'1111.4
2014-Oct-15 00:33N 43°54' E 009°12'1212.4
2014-Oct-14 23:33N 43°52' E 008°55'1312.5
2014-Oct-14 22:33N 43°49' E 008°38'5811.7
2014-Oct-14 17:33N 43°40' E 007°18'1 1.3
2014-Oct-14 16:30N 43°41' E 007°19'0 0.0
2014-Oct-14 15:24N 43°41' E 007°19'0 0.0
2014-Oct-14 14:18N 43°41' E 007°19'0 0.0
2014-Oct-14 13:24N 43°41' E 007°19'0 0.0
2014-Oct-14 11:24N 43°41' E 007°19'0 0.0
2014-Oct-14 10:30N 43°41' E 007°19'0 0.0
2014-Oct-14 09:24N 43°41' E 007°19'0 0.0
2014-Oct-14 04:33N 43°41' E 007°19'9 9.0
2014-Oct-14 03:33N 43°32' E 007°17'1211.7
2014-Oct-14 02:33N 43°21' E 007°16'1212.0
2014-Oct-14 01:33N 43°11' E 007°06'1512.6
2014-Oct-14 00:22N 42°60' E 006°53'1012.6
2014-Oct-13 23:33N 42°52' E 006°43'6610.4
2014-Oct-13 17:10N 43°13' E 005°17'8 0.8
2014-Oct-13 06:22N 43°21' E 005°19'910.5
2014-Oct-13 05:33N 43°15' E 005°10'1312.4
2014-Oct-13 04:29N 43°06' E 004°58'1212.3
2014-Oct-13 03:32N 42°57' E 004°47'10813.2
2014-Oct-12 19:21N 41°41' E 003°04'1314.4
2014-Oct-12 18:27N 41°34' E 002°49'1613.7
2014-Oct-12 17:19N 41°25' E 002°32'1213.0
2014-Oct-12 16:22N 41°18' E 002°18'17 1.1
2014-Oct-12 01:33N 41°16' E 002°41'49716.3
2014-Oct-10 19:07N 40°40' E 013°37'1016.7
2014-Oct-10 18:33N 40°39' E 013°50'1615.7
2014-Oct-10 17:32N 40°43' E 014°09'9 4.1
2014-Oct-10 15:27N 40°50' E 014°16'0 0.0
2014-Oct-10 14:21N 40°50' E 014°16'0 0.0
2014-Oct-10 13:12N 40°50' E 014°16'0 0.0
2014-Oct-10 12:33N 40°50' E 014°16'  
Track history (hours):
 
Tides and Currents Weather Stations Pressure Air Temp Water Temp Dewpoint Dewpoint Depression Visibility Wind Speed Wind Dir Waves Ship Positions

Liberty of The Seas

Last reported at 2014-Oct-20 06:31 UTC. Time now 2014-Oct-20 09:59 UTC.
Position N 43°21' E 005°19'.

Type: Passenger vessel. MMSI: 309436000.

Date/timePositionNaut miles runAvg speedWind from/ knotsBaromVisibWave heightAir tempDewpointWater temp
2014-Oct-20 06:31N 43°21' E 005°19'9 9.5
2014-Oct-20 05:33N 43°15' E 005°10'1312.8
2014-Oct-20 04:33N 43°05' E 004°58'10013.3
2014-Oct-19 21:04N 41°51' E 003°28'2013.3
2014-Oct-19 19:33N 41°40' E 003°05'1713.4
2014-Oct-19 18:16N 41°30' E 002°46'2613.3
2014-Oct-19 16:17N 41°17' E 002°16'50 3.0
2014-Oct-18 23:33N 41°16' E 003°23'3316.5
2014-Oct-18 21:33N 41°16' E 004°07'2016.3
2014-Oct-18 20:21N 41°16' E 004°33'2015.9
2014-Oct-18 19:07N 41°16' E 004°59'1016.7
2014-Oct-18 18:32N 41°16' E 005°12'1716.8
2014-Oct-18 17:32N 41°17' E 005°34'1515.8
2014-Oct-18 16:33N 41°17' E 005°55'1716.0
2014-Oct-18 15:30N 41°17' E 006°17'2216.2
2014-Oct-18 14:09N 41°17' E 006°46'1016.3
2014-Oct-18 13:32N 41°17' E 006°60'  
2014-Oct-15 19:20N 43°38' E 009°40'1417.1
2014-Oct-15 18:32N 43°50' E 009°47'1414.5
2014-Oct-15 17:33N 44°04' E 009°51'2 2.3
2014-Oct-15 16:33N 44°06' E 009°50'0 0.0
2014-Oct-15 15:33N 44°06' E 009°50'0 0.0
2014-Oct-15 14:33N 44°06' E 009°50'0 0.0
2014-Oct-15 13:30N 44°06' E 009°50'0 0.0
2014-Oct-15 12:33N 44°06' E 009°50'0 0.0
2014-Oct-15 11:33N 44°06' E 009°50'0 0.0
2014-Oct-15 10:33N 44°06' E 009°50'0 0.0
2014-Oct-15 09:33N 44°06' E 009°50'0 0.0
2014-Oct-15 08:33N 44°06' E 009°50'0 0.0
2014-Oct-15 07:33N 44°06' E 009°50'0 0.0
2014-Oct-15 06:33N 44°06' E 009°50'0 0.0
2014-Oct-15 05:30N 44°06' E 009°50'0 0.4
2014-Oct-15 04:33N 44°06' E 009°50'7 6.9
2014-Oct-15 03:33N 44°00' E 009°56'10 9.7
2014-Oct-15 02:33N 43°58' E 009°43'1111.2
2014-Oct-15 01:33N 43°56' E 009°28'1111.4
2014-Oct-15 00:33N 43°54' E 009°12'1212.4
2014-Oct-14 23:33N 43°52' E 008°55'1312.5
2014-Oct-14 22:33N 43°49' E 008°38'5811.7
2014-Oct-14 17:33N 43°40' E 007°18'1 1.3
2014-Oct-14 16:30N 43°41' E 007°19'0 0.0
2014-Oct-14 15:24N 43°41' E 007°19'0 0.0
2014-Oct-14 14:18N 43°41' E 007°19'0 0.0
2014-Oct-14 13:24N 43°41' E 007°19'0 0.0
2014-Oct-14 11:24N 43°41' E 007°19'0 0.0
2014-Oct-14 10:30N 43°41' E 007°19'0 0.0
2014-Oct-14 09:24N 43°41' E 007°19'0 0.0
2014-Oct-14 04:33N 43°41' E 007°19'9 9.0
2014-Oct-14 03:33N 43°32' E 007°17'1211.7
2014-Oct-14 02:33N 43°21' E 007°16'1212.0
2014-Oct-14 01:33N 43°11' E 007°06'1512.6
2014-Oct-14 00:22N 42°60' E 006°53'1012.6
2014-Oct-13 23:33N 42°52' E 006°43'6610.4
2014-Oct-13 17:10N 43°13' E 005°17'8 0.8
2014-Oct-13 06:22N 43°21' E 005°19'910.5
2014-Oct-13 05:33N 43°15' E 005°10'1312.4
2014-Oct-13 04:29N 43°06' E 004°58'1212.3
2014-Oct-13 03:32N 42°57' E 004°47'10813.2
2014-Oct-12 19:21N 41°41' E 003°04'1314.4
2014-Oct-12 18:27N 41°34' E 002°49'1613.7
2014-Oct-12 17:19N 41°25' E 002°32'1213.0
2014-Oct-12 16:22N 41°18' E 002°18'17 1.1
2014-Oct-12 01:33N 41°16' E 002°41'49716.3
2014-Oct-10 19:07N 40°40' E 013°37'1016.7
2014-Oct-10 18:33N 40°39' E 013°50'1615.7
2014-Oct-10 17:32N 40°43' E 014°09'9 4.1
2014-Oct-10 15:27N 40°50' E 014°16'0 0.0
2014-Oct-10 14:21N 40°50' E 014°16'0 0.0
2014-Oct-10 13:12N 40°50' E 014°16'0 0.0
2014-Oct-10 12:33N 40°50' E 014°16'  

Dump ship's entire track history